createdAt,value
2022-08-26T00:00:21.181Z,66.03
2022-08-26T00:01:29.746Z,66.50
2022-08-26T00:02:31.968Z,66.34
2022-08-26T00:03:36.627Z,66.00
2022-08-26T00:04:41.396Z,66.28
2022-08-26T00:05:47.314Z,66.28
2022-08-26T00:06:51.557Z,66.61
2022-08-26T00:07:57.157Z,66.18
2022-08-26T00:09:01.302Z,66.95
2022-08-26T00:10:07.662Z,66.89
2022-08-26T00:11:11.867Z,66.69
2022-08-26T00:12:16.071Z,66.57
2022-08-26T00:13:21.712Z,66.78
2022-08-26T00:14:30.804Z,66.70
2022-08-26T00:15:31.685Z,66.83
2022-08-26T00:16:40.848Z,66.44
2022-08-26T00:17:44.221Z,67.20
2022-08-26T00:18:48.326Z,67.20
2022-08-26T00:19:53.386Z,66.58
2022-08-26T00:20:58.139Z,66.58
2022-08-26T00:22:02.133Z,66.80
2022-08-26T00:23:08.945Z,66.70
2022-08-26T00:24:13.222Z,66.42
2022-08-26T00:25:19.406Z,66.42
2022-08-26T00:26:24.066Z,66.89
2022-08-26T00:27:31.294Z,67.07
2022-08-26T00:28:37.167Z,67.19
2022-08-26T00:29:41.267Z,67.30
2022-08-26T00:30:46.712Z,67.05
2022-08-26T00:31:51.521Z,67.05
2022-08-26T00:32:55.935Z,67.10
2022-08-26T00:34:00.082Z,67.46
2022-08-26T00:35:05.896Z,67.46
2022-08-26T00:36:12.871Z,66.93
2022-08-26T00:37:17.060Z,66.93
2022-08-26T00:38:21.116Z,66.87
2022-08-26T00:39:27.107Z,66.73
2022-08-26T00:40:35.282Z,66.63
2022-08-26T00:41:41.619Z,67.11
2022-08-26T00:42:46.142Z,67.48
2022-08-26T00:43:52.113Z,67.58
2022-08-26T00:44:57.121Z,67.58
2022-08-26T00:46:22.561Z,67.56
2022-08-26T00:47:35.267Z,67.22
2022-08-26T00:48:44.327Z,67.62
2022-08-26T00:49:49.726Z,67.48
2022-08-26T00:51:02.617Z,67.48
2022-08-26T00:52:12.082Z,67.66
2022-08-26T00:53:17.148Z,67.10
2022-08-26T00:54:24.367Z,66.26
2022-08-26T00:55:39.041Z,66.26
2022-08-26T00:56:55.510Z,66.85
2022-08-26T00:58:02.209Z,66.85
2022-08-26T00:59:10.305Z,66.80
2022-08-26T01:00:18.877Z,66.80
2022-08-26T01:01:24.600Z,66.85
2022-08-26T01:02:32.047Z,66.77
2022-08-26T01:03:39.972Z,67.17
2022-08-26T01:04:44.601Z,66.48
2022-08-26T01:05:50.215Z,66.51
2022-08-26T01:06:56.397Z,67.54
2022-08-26T01:08:00.414Z,67.54
2022-08-26T01:09:11.993Z,66.78
2022-08-26T01:10:18.708Z,66.86
2022-08-26T01:11:23.394Z,66.86
2022-08-26T01:12:30.526Z,67.05
2022-08-26T01:13:36.897Z,67.54
2022-08-26T01:14:41.300Z,67.22
2022-08-26T01:15:49.817Z,67.73
2022-08-26T01:16:55.974Z,67.73
2022-08-26T01:18:01.355Z,67.36
2022-08-26T01:19:31.079Z,67.69
2022-08-26T01:20:57.751Z,67.51
2022-08-26T01:22:11.857Z,67.51
2022-08-26T01:23:16.060Z,67.64
2022-08-26T01:24:20.522Z,67.64
2022-08-26T01:25:27.742Z,67.92
2022-08-26T01:26:35.078Z,67.78
2022-08-26T01:27:39.774Z,67.78
2022-08-26T01:28:44.880Z,67.55
2022-08-26T01:29:51.916Z,67.43
2022-08-26T01:30:59.837Z,67.55
2022-08-26T01:32:09.016Z,67.55
2022-08-26T01:33:16.004Z,67.92
2022-08-26T01:34:31.732Z,67.74
2022-08-26T01:35:36.453Z,68.09
2022-08-26T01:36:41.654Z,68.09
2022-08-26T01:37:48.342Z,68.05
2022-08-26T01:38:52.922Z,68.16
2022-08-26T01:39:58.951Z,68.14
2022-08-26T01:41:03.751Z,68.14
2022-08-26T01:42:12.448Z,68.39
2022-08-26T01:43:19.608Z,67.86
2022-08-26T01:44:28.127Z,67.82
2022-08-26T01:45:35.237Z,67.71
2022-08-26T01:46:39.559Z,67.71
2022-08-26T01:47:43.740Z,67.89
2022-08-26T01:48:54.421Z,67.89
2022-08-26T01:50:02.929Z,68.54
2022-08-26T01:51:09.707Z,68.54
2022-08-26T01:52:16.647Z,68.09
2022-08-26T01:53:23.741Z,67.76
2022-08-26T01:54:27.880Z,67.59
2022-08-26T01:55:34.046Z,67.82
2022-08-26T01:56:38.835Z,67.80
2022-08-26T01:57:48.175Z,67.80
2022-08-26T01:58:58.013Z,67.46
2022-08-26T02:00:04.572Z,67.56
2022-08-26T02:01:09.642Z,66.81
2022-08-26T02:02:15.611Z,66.81
2022-08-26T02:03:21.138Z,67.77
2022-08-26T02:04:39.930Z,67.59
2022-08-26T02:05:46.652Z,68.19
2022-08-26T02:06:53.665Z,67.28
2022-08-26T02:07:58.481Z,67.87
2022-08-26T02:09:04.641Z,67.41
2022-08-26T02:10:13.274Z,67.61
2022-08-26T02:11:18.432Z,67.94
2022-08-26T02:12:23.406Z,67.82
2022-08-26T02:13:29.963Z,67.82
2022-08-26T02:14:43.867Z,67.33
2022-08-26T02:15:45.322Z,67.45
2022-08-26T02:16:52.309Z,67.45
2022-08-26T02:17:58.037Z,66.91
2022-08-26T02:19:03.996Z,67.46
2022-08-26T02:20:13.339Z,67.24
2022-08-26T02:21:18.174Z,67.24
2022-08-26T02:22:24.713Z,67.46
2022-08-26T02:23:28.907Z,67.40
2022-08-26T02:24:53.648Z,67.05
2022-08-26T02:26:09.457Z,67.44
2022-08-26T02:27:17.399Z,67.57
2022-08-26T02:28:20.509Z,67.38
2022-08-26T02:29:27.513Z,67.57
2022-08-26T02:30:34.830Z,66.95
2022-08-26T02:31:39.719Z,66.95
2022-08-26T02:32:43.877Z,66.95
2022-08-26T02:33:47.978Z,67.01
2022-08-26T02:34:52.517Z,66.71
2022-08-26T02:35:56.870Z,66.77
2022-08-26T02:37:03.322Z,66.65
2022-08-26T02:38:10.196Z,67.00
2022-08-26T02:39:19.536Z,67.00
2022-08-26T02:40:24.318Z,67.32
2022-08-26T02:41:28.806Z,66.95
2022-08-26T02:42:32.852Z,66.70
2022-08-26T02:43:37.326Z,67.18
2022-08-26T02:44:41.371Z,67.18
2022-08-26T02:45:45.443Z,67.10
2022-08-26T02:46:49.625Z,67.10
2022-08-26T02:47:54.674Z,67.13
2022-08-26T02:49:00.475Z,67.71
2022-08-26T02:50:06.291Z,67.54
2022-08-26T02:51:10.356Z,67.37
2022-08-26T02:52:14.657Z,67.37
2022-08-26T02:53:23.171Z,67.65
2022-08-26T02:54:24.527Z,67.65
2022-08-26T02:55:28.710Z,67.43
2022-08-26T02:56:37.617Z,67.43
2022-08-26T02:57:41.684Z,67.64
2022-08-26T02:58:46.010Z,67.64
2022-08-26T02:59:50.176Z,67.86
2022-08-26T03:00:54.759Z,67.86
2022-08-26T03:01:58.896Z,67.67
2022-08-26T03:03:04.437Z,67.71
2022-08-26T03:04:11.765Z,67.75
2022-08-26T03:05:16.789Z,67.74
2022-08-26T03:06:21.864Z,67.78
2022-08-26T03:07:26.265Z,67.80
2022-08-26T03:08:30.307Z,67.80
2022-08-26T03:09:34.436Z,67.59
2022-08-26T03:10:39.974Z,67.86
2022-08-26T03:11:43.962Z,67.67
2022-08-26T03:12:48.843Z,66.93
2022-08-26T03:13:53.043Z,67.52
2022-08-26T03:14:57.594Z,67.03
2022-08-26T03:16:03.118Z,67.03
2022-08-26T03:17:07.221Z,67.21
2022-08-26T03:18:12.947Z,67.21
2022-08-26T03:19:18.992Z,67.21
2022-08-26T03:20:23.742Z,67.20
2022-08-26T03:21:27.988Z,67.07
2022-08-26T03:22:33.428Z,67.07
2022-08-26T03:23:38.442Z,66.54
2022-08-26T03:24:45.984Z,66.46
2022-08-26T03:25:52.845Z,66.46
2022-08-26T03:26:57.440Z,66.49
2022-08-26T03:28:01.409Z,66.68
2022-08-26T03:29:07.021Z,66.51
2022-08-26T03:30:13.015Z,66.18
2022-08-26T03:31:18.726Z,65.97
2022-08-26T03:32:24.367Z,65.65
2022-08-26T03:33:30.154Z,65.30
2022-08-26T03:34:35.514Z,65.30
2022-08-26T03:35:42.273Z,65.60
2022-08-26T03:36:46.424Z,65.60
2022-08-26T03:37:50.399Z,64.92
2022-08-26T03:38:54.369Z,64.96
2022-08-26T03:39:58.443Z,64.96
2022-08-26T03:41:02.802Z,64.57
2022-08-26T03:42:07.087Z,64.39
2022-08-26T03:43:12.873Z,63.93
2022-08-26T03:44:17.399Z,64.12
2022-08-26T03:46:58.772Z,63.53
2022-08-26T03:47:59.889Z,63.53
2022-08-26T03:49:05.699Z,63.15
2022-08-26T03:50:12.524Z,63.15
2022-08-26T03:51:19.091Z,63.59
2022-08-26T03:52:23.349Z,63.07
2022-08-26T03:53:27.585Z,63.07
2022-08-26T03:54:31.977Z,62.97
2022-08-26T03:55:36.010Z,62.52
2022-08-26T03:56:40.526Z,62.11
2022-08-26T03:57:44.716Z,62.11
2022-08-26T03:58:51.301Z,61.17
2022-08-26T03:59:55.267Z,60.83
2022-08-26T04:01:00.396Z,60.83
2022-08-26T04:02:04.629Z,59.57
2022-08-26T04:03:15.844Z,59.65
2022-08-26T04:04:17.792Z,59.65
2022-08-26T04:05:23.786Z,58.64
2022-08-26T04:06:31.233Z,57.90
2022-08-26T04:07:36.528Z,57.90
2022-08-26T04:08:42.774Z,57.25
2022-08-26T04:09:46.526Z,57.25
2022-08-26T04:10:51.058Z,56.47
2022-08-26T04:11:56.784Z,54.96
2022-08-26T04:13:01.140Z,54.54
2022-08-26T04:14:08.485Z,54.54
2022-08-26T04:15:15.511Z,53.61
2022-08-26T04:16:20.893Z,53.81
2022-08-26T04:17:26.735Z,53.20
2022-08-26T04:18:36.923Z,52.48
2022-08-26T04:19:36.474Z,52.89
2022-08-26T04:20:40.630Z,52.54
2022-08-26T04:21:46.748Z,53.18
2022-08-26T04:22:50.806Z,53.27
2022-08-26T04:23:56.571Z,53.88
2022-08-26T04:25:01.212Z,53.93
2022-08-26T04:26:07.413Z,53.93
2022-08-26T04:27:13.293Z,53.92
2022-08-26T04:28:19.139Z,54.52
2022-08-26T04:29:26.330Z,54.42
2022-08-26T04:30:30.510Z,54.42
2022-08-26T04:31:37.734Z,54.83
2022-08-26T04:32:42.427Z,54.52
2022-08-26T04:33:49.739Z,54.72
2022-08-26T04:34:53.987Z,54.22
2022-08-26T04:36:05.572Z,54.29
2022-08-26T04:37:10.656Z,53.74
2022-08-26T04:38:14.789Z,53.21
2022-08-26T04:39:19.434Z,53.21
2022-08-26T04:40:25.946Z,51.54
2022-08-26T04:41:31.512Z,51.46
2022-08-26T04:42:35.825Z,51.46
2022-08-26T04:43:41.615Z,50.81
2022-08-26T04:44:48.417Z,50.67
2022-08-26T04:45:54.759Z,50.67
2022-08-26T04:46:59.092Z,49.94
2022-08-26T04:48:03.599Z,49.88
2022-08-26T04:49:08.760Z,49.88
2022-08-26T04:50:13.194Z,49.60
2022-08-26T04:51:21.679Z,49.60
2022-08-26T04:52:26.157Z,48.53
2022-08-26T04:53:32.546Z,48.87
2022-08-26T04:54:37.879Z,48.17
2022-08-26T04:55:45.122Z,47.80
2022-08-26T04:56:49.402Z,47.53
2022-08-26T04:57:57.027Z,47.01
2022-08-26T04:59:00.035Z,47.01
2022-08-26T05:00:08.741Z,47.34
2022-08-26T05:01:12.921Z,47.34
2022-08-26T05:02:17.047Z,47.01
2022-08-26T05:03:21.271Z,47.01
2022-08-26T05:04:25.426Z,46.55
2022-08-26T05:05:29.489Z,46.55
2022-08-26T05:06:37.096Z,46.11
2022-08-26T05:07:39.474Z,46.25
2022-08-26T05:08:45.113Z,46.35
2022-08-26T05:09:50.452Z,45.88
2022-08-26T05:10:56.232Z,46.21
2022-08-26T05:12:00.532Z,45.98
2022-08-26T05:13:04.667Z,46.48
2022-08-26T05:14:12.398Z,46.48
2022-08-26T05:15:16.179Z,46.73
2022-08-26T05:16:20.979Z,46.73
2022-08-26T05:17:25.164Z,46.18
2022-08-26T05:18:29.224Z,46.90
2022-08-26T05:19:33.277Z,46.56
2022-08-26T05:20:46.347Z,46.56
2022-08-26T05:21:51.152Z,46.47
2022-08-26T05:22:55.214Z,46.58
2022-08-26T05:23:59.447Z,46.68
2022-08-26T05:25:03.639Z,45.03
2022-08-26T05:26:09.255Z,45.03
2022-08-26T05:27:14.356Z,45.99
2022-08-26T05:28:20.685Z,44.60
2022-08-26T05:29:25.195Z,44.60
2022-08-26T05:30:30.803Z,45.03
2022-08-26T05:31:38.289Z,44.50
2022-08-26T05:32:42.437Z,44.50
2022-08-26T05:33:46.645Z,44.10
2022-08-26T05:34:56.768Z,44.60
2022-08-26T05:36:05.345Z,44.60
2022-08-26T05:37:09.301Z,44.52
2022-08-26T05:38:16.284Z,44.42
2022-08-26T05:39:22.458Z,43.58
2022-08-26T05:40:31.355Z,43.47
2022-08-26T05:41:38.796Z,44.00
2022-08-26T05:42:43.395Z,44.00
2022-08-26T05:43:47.522Z,43.46
2022-08-26T05:44:56.108Z,43.46
2022-08-26T05:46:06.540Z,43.46
2022-08-26T05:47:10.689Z,42.09
2022-08-26T05:48:18.834Z,42.09
2022-08-26T05:49:26.436Z,41.77
2022-08-26T05:50:30.681Z,41.51
2022-08-26T05:51:35.284Z,41.38
2022-08-26T05:52:42.873Z,41.02
2022-08-26T05:53:54.350Z,41.02
2022-08-26T05:54:51.184Z,41.11
2022-08-26T05:55:56.034Z,41.16
2022-08-26T05:57:00.623Z,40.68
2022-08-26T05:58:06.234Z,40.04
2022-08-26T05:59:17.313Z,40.04
2022-08-26T06:00:24.349Z,41.17
2022-08-26T06:01:29.910Z,40.04
2022-08-26T06:02:33.981Z,40.04
2022-08-26T06:03:40.224Z,39.75
2022-08-26T06:04:44.520Z,39.95
2022-08-26T06:05:48.583Z,39.95
2022-08-26T06:06:54.931Z,38.73
2022-08-26T06:08:00.569Z,39.27
2022-08-26T06:09:09.324Z,39.27
2022-08-26T06:10:31.605Z,39.89
2022-08-26T06:11:23.535Z,39.39
2022-08-26T06:12:28.552Z,39.29
2022-08-26T06:13:34.001Z,39.29
2022-08-26T06:14:39.247Z,39.03
2022-08-26T06:15:46.120Z,39.01
2022-08-26T06:16:50.225Z,39.40
2022-08-26T06:17:54.390Z,38.70
2022-08-26T06:18:58.408Z,38.70
2022-08-26T06:20:02.502Z,38.45
2022-08-26T06:21:26.903Z,39.15
2022-08-26T06:22:31.009Z,38.73
2022-08-26T06:23:35.761Z,39.28
2022-08-26T06:24:54.958Z,38.11
2022-08-26T06:25:45.694Z,38.58
2022-08-26T06:26:53.733Z,38.58
2022-08-26T06:27:59.145Z,38.83
2022-08-26T06:29:05.754Z,38.73
2022-08-26T06:30:10.499Z,38.35
2022-08-26T06:31:16.493Z,38.11
2022-08-26T06:32:20.566Z,38.38
2022-08-26T06:33:25.468Z,38.37
2022-08-26T06:34:31.045Z,37.83
2022-08-26T06:35:42.597Z,37.83
2022-08-26T06:36:47.646Z,38.03
2022-08-26T06:37:51.759Z,38.03
2022-08-26T06:38:58.741Z,37.96
2022-08-26T06:40:03.005Z,38.13
2022-08-26T06:41:14.386Z,38.13
2022-08-26T06:42:16.480Z,37.63
2022-08-26T06:43:23.636Z,38.25
2022-08-26T06:44:28.166Z,38.43
2022-08-26T06:45:32.216Z,37.55
2022-08-26T06:46:36.610Z,37.49
2022-08-26T06:47:40.784Z,37.49
2022-08-26T06:48:47.806Z,36.81
2022-08-26T06:49:51.935Z,36.81
2022-08-26T06:51:14.094Z,37.65
2022-08-26T06:52:24.390Z,37.76
2022-08-26T06:53:25.384Z,37.39
2022-08-26T06:54:29.845Z,37.39
2022-08-26T06:55:34.274Z,37.40
2022-08-26T06:56:43.805Z,36.35
2022-08-26T06:57:48.043Z,35.70
2022-08-26T06:58:54.561Z,35.70
2022-08-26T07:00:00.335Z,36.13
2022-08-26T07:01:11.287Z,35.81
2022-08-26T07:02:13.476Z,36.09
2022-08-26T07:03:17.991Z,36.29
2022-08-26T07:04:27.964Z,36.47
2022-08-26T07:05:34.372Z,36.47
2022-08-26T07:06:41.330Z,34.88
2022-08-26T07:07:48.069Z,34.95
2022-08-26T07:08:54.319Z,34.86
2022-08-26T07:09:58.305Z,35.48
2022-08-26T07:11:09.632Z,35.48
2022-08-26T07:12:13.755Z,35.07
2022-08-26T07:13:17.896Z,35.07
2022-08-26T07:14:23.795Z,35.25
2022-08-26T07:15:31.340Z,35.80
2022-08-26T07:16:34.198Z,35.80
2022-08-26T07:17:39.846Z,35.15
2022-08-26T07:18:45.754Z,35.15
2022-08-26T07:19:50.004Z,34.48
2022-08-26T07:20:54.159Z,34.48
2022-08-26T07:21:59.810Z,34.45
2022-08-26T07:23:03.932Z,34.41
2022-08-26T07:24:11.049Z,34.41
2022-08-26T07:25:15.428Z,33.49
2022-08-26T07:26:23.997Z,32.73
2022-08-26T07:27:29.078Z,32.73
2022-08-26T07:28:33.316Z,32.79
2022-08-26T07:29:38.610Z,32.79
2022-08-26T07:30:42.821Z,33.42
2022-08-26T07:31:47.010Z,33.92
2022-08-26T07:32:57.998Z,33.92
2022-08-26T07:34:01.271Z,32.27
2022-08-26T07:35:09.142Z,32.55
2022-08-26T07:36:15.765Z,33.41
2022-08-26T07:37:20.518Z,31.98
2022-08-26T07:38:24.498Z,33.30
2022-08-26T07:39:31.670Z,30.50
2022-08-26T07:40:37.159Z,30.50
2022-08-26T07:41:42.517Z,31.16
2022-08-26T07:42:49.748Z,30.19
2022-08-26T07:43:54.520Z,30.19
2022-08-26T07:45:01.181Z,29.94
2022-08-26T07:46:09.233Z,30.81
2022-08-26T07:47:25.096Z,31.43
2022-08-26T07:48:22.095Z,31.49
2022-08-26T07:49:27.063Z,30.11
2022-08-26T07:50:49.483Z,30.11
2022-08-26T07:51:39.015Z,30.27
2022-08-26T07:52:45.899Z,30.49
2022-08-26T07:53:52.844Z,30.49
2022-08-26T07:55:00.202Z,30.69
2022-08-26T07:56:04.592Z,29.46
2022-08-26T07:57:09.385Z,30.03
2022-08-26T07:58:14.295Z,29.88
2022-08-26T07:59:19.618Z,29.46
2022-08-26T08:00:26.086Z,28.86
2022-08-26T08:01:30.705Z,29.99
2022-08-26T08:02:35.393Z,29.39
2022-08-26T08:03:39.666Z,29.67
2022-08-26T08:04:43.692Z,30.24
2022-08-26T08:05:48.353Z,29.20
2022-08-26T08:06:56.754Z,29.41
2022-08-26T08:08:27.019Z,29.61
2022-08-26T08:09:09.159Z,29.61
2022-08-26T08:10:17.607Z,29.19
2022-08-26T08:11:23.685Z,28.64
2022-08-26T08:12:27.911Z,29.34
2022-08-26T08:13:31.920Z,29.34
2022-08-26T08:14:36.038Z,29.84
2022-08-26T08:15:42.822Z,29.44
2022-08-26T08:16:48.481Z,29.74
2022-08-26T08:17:56.570Z,29.74
2022-08-26T08:19:00.658Z,28.96
2022-08-26T08:20:05.041Z,28.21
2022-08-26T08:21:22.058Z,28.66
2022-08-26T08:22:44.255Z,28.66
2022-08-26T08:23:28.441Z,28.38
2022-08-26T08:24:33.872Z,28.27
2022-08-26T08:25:38.740Z,28.81
2022-08-26T08:26:42.977Z,28.81
2022-08-26T08:27:47.140Z,29.24
2022-08-26T08:28:53.396Z,29.24
2022-08-26T08:29:57.523Z,28.51
2022-08-26T08:31:03.507Z,28.26
2022-08-26T08:32:11.530Z,28.09
2022-08-26T08:33:13.573Z,28.49
2022-08-26T08:34:18.076Z,27.99
2022-08-26T08:35:23.869Z,27.99
2022-08-26T08:36:32.200Z,27.75
2022-08-26T08:37:34.786Z,28.19
2022-08-26T08:38:38.725Z,27.99
2022-08-26T08:39:44.537Z,28.21
2022-08-26T08:40:51.718Z,28.21
2022-08-26T08:42:10.553Z,28.76
2022-08-26T08:43:21.862Z,27.99
2022-08-26T08:45:47.158Z,29.00
2022-08-26T08:46:55.616Z,27.82
2022-08-26T08:48:13.150Z,28.01
2022-08-26T08:49:24.308Z,28.01
2022-08-26T08:50:36.798Z,27.54
2022-08-26T08:51:46.344Z,27.54
2022-08-26T08:53:17.358Z,27.68
2022-08-26T08:54:01.525Z,27.68
2022-08-26T08:55:10.331Z,27.99
2022-08-26T08:56:33.232Z,27.78
2022-08-26T08:57:42.994Z,27.65
2022-08-26T08:59:06.870Z,28.27
2022-08-26T09:00:17.102Z,28.02
2022-08-26T09:01:43.335Z,26.54
2022-08-26T09:02:52.957Z,27.43
2022-08-26T09:04:05.677Z,27.43
2022-08-26T09:05:27.982Z,26.78
2022-08-26T09:06:34.253Z,26.16
2022-08-26T09:07:47.204Z,26.67
2022-08-26T09:08:52.283Z,26.97
2022-08-26T09:10:05.209Z,26.97
2022-08-26T09:11:09.263Z,26.48
2022-08-26T09:12:29.642Z,26.11
2022-08-26T09:13:31.723Z,25.54
2022-08-26T09:14:36.604Z,25.54
2022-08-26T09:15:58.725Z,25.53
2022-08-26T09:17:11.837Z,25.86
2022-08-26T09:18:35.321Z,25.86
2022-08-26T09:19:42.441Z,26.65
2022-08-26T09:21:07.826Z,25.81
2022-08-26T09:22:16.103Z,25.81
2022-08-26T09:23:20.128Z,25.28
2022-08-26T09:24:28.593Z,24.99
2022-08-26T09:25:32.170Z,24.99
2022-08-26T09:26:43.876Z,24.64
2022-08-26T09:27:50.776Z,24.78
2022-08-26T09:29:03.808Z,24.93
2022-08-26T09:30:11.362Z,23.67
2022-08-26T09:31:27.869Z,23.67
2022-08-26T09:32:31.955Z,22.07
2022-08-26T09:33:39.376Z,22.42
2022-08-26T09:34:54.798Z,23.20
2022-08-26T09:36:25.366Z,23.20
2022-08-26T09:38:53.159Z,22.05
2022-08-26T09:40:02.222Z,21.75
2022-08-26T09:41:12.164Z,21.82
2022-08-26T09:42:25.550Z,21.51
2022-08-26T09:43:30.007Z,21.51
2022-08-26T09:44:36.597Z,21.73
2022-08-26T09:45:50.237Z,21.82
2022-08-26T09:47:00.339Z,22.49
2022-08-26T09:48:08.469Z,22.49
2022-08-26T09:49:30.666Z,21.21
2022-08-26T09:50:56.868Z,22.45
2022-08-26T09:52:06.795Z,22.45
2022-08-26T09:53:17.774Z,23.02
2022-08-26T09:54:30.432Z,22.83
2022-08-26T09:55:36.383Z,23.01
2022-08-26T09:56:41.133Z,23.13
2022-08-26T09:57:48.517Z,23.37
2022-08-26T09:58:53.356Z,23.16
2022-08-26T10:00:00.310Z,23.16
2022-08-26T10:01:10.061Z,24.32
2022-08-26T10:02:35.569Z,24.25
2022-08-26T10:03:40.691Z,23.40
2022-08-26T10:04:53.972Z,22.86
2022-08-26T10:06:03.060Z,24.15
2022-08-26T10:07:07.836Z,24.15
2022-08-26T10:08:32.845Z,23.08
2022-08-26T10:09:39.812Z,25.11
2022-08-26T10:10:46.637Z,25.11
2022-08-26T10:11:58.226Z,25.37
2022-08-26T10:13:09.829Z,25.92
2022-08-26T10:14:34.829Z,25.55
2022-08-26T10:16:01.382Z,25.89
2022-08-26T10:17:08.933Z,25.89
2022-08-26T10:18:18.638Z,25.16
2022-08-26T10:19:25.734Z,25.90
2022-08-26T10:20:34.541Z,26.12
2022-08-26T10:21:52.245Z,24.98
2022-08-26T10:23:08.318Z,24.98
2022-08-26T10:24:15.094Z,24.54
2022-08-26T10:25:23.126Z,24.46
2022-08-26T10:26:44.725Z,24.90
2022-08-26T10:28:03.683Z,24.46
2022-08-26T10:29:22.450Z,25.17
2022-08-26T10:30:39.377Z,25.66
2022-08-26T10:32:03.717Z,25.77
2022-08-26T10:33:10.675Z,26.15
2022-08-26T10:34:16.459Z,26.16
2022-08-26T10:35:21.045Z,26.42
2022-08-26T10:36:36.534Z,26.05
2022-08-26T10:37:41.368Z,27.06
2022-08-26T10:38:47.220Z,26.97
2022-08-26T10:39:58.784Z,25.26
2022-08-26T10:41:11.099Z,25.26
2022-08-26T10:42:20.272Z,24.86
2022-08-26T10:43:35.185Z,24.86
2022-08-26T10:44:43.720Z,25.78
2022-08-26T10:45:53.204Z,26.58
2022-08-26T10:47:03.294Z,25.67
2022-08-26T10:48:16.003Z,25.67
2022-08-26T10:49:20.022Z,26.04
2022-08-26T10:50:28.693Z,26.04
2022-08-26T10:51:35.676Z,25.89
2022-08-26T10:52:42.912Z,26.18
2022-08-26T10:53:55.530Z,25.85
2022-08-26T10:55:14.447Z,23.70
2022-08-26T10:56:25.675Z,21.17
2022-08-26T10:57:48.922Z,21.17
2022-08-26T10:59:04.691Z,22.10
2022-08-26T11:00:19.568Z,20.92
2022-08-26T11:01:36.680Z,20.92
2022-08-26T11:02:47.148Z,19.49
2022-08-26T11:04:16.548Z,20.26
2022-08-26T11:05:22.997Z,20.26
2022-08-26T11:06:29.967Z,20.87
2022-08-26T11:07:45.360Z,21.47
2022-08-26T11:08:51.657Z,20.53
2022-08-26T11:09:57.197Z,20.88
2022-08-26T11:11:02.941Z,20.88
2022-08-26T11:12:10.286Z,22.33
2022-08-26T11:13:14.396Z,22.33
2022-08-26T11:14:28.708Z,22.16
2022-08-26T11:15:32.982Z,22.06
2022-08-26T11:16:43.689Z,22.06
2022-08-26T11:17:53.695Z,21.99
2022-08-26T11:18:59.095Z,22.86
2022-08-26T11:20:08.910Z,22.82
2022-08-26T11:21:44.525Z,22.82
2022-08-26T11:22:50.226Z,21.83
2022-08-26T11:23:54.249Z,22.46
2022-08-26T11:25:01.579Z,23.48
2022-08-26T11:26:32.737Z,22.80
2022-08-26T11:27:28.554Z,22.98
2022-08-26T11:28:44.815Z,23.00
2022-08-26T11:29:57.077Z,23.00
2022-08-26T11:31:06.783Z,22.58
2022-08-26T11:32:27.384Z,22.61
2022-08-26T11:33:52.779Z,22.61
2022-08-26T11:34:59.610Z,21.78
2022-08-26T11:36:12.391Z,22.54
2022-08-26T11:37:13.448Z,22.54
2022-08-26T11:38:28.849Z,22.89
2022-08-26T11:39:57.213Z,23.45
2022-08-26T11:41:07.606Z,23.45
2022-08-26T11:42:29.397Z,22.78
2022-08-26T11:43:34.140Z,22.35
2022-08-26T11:44:49.403Z,23.00
2022-08-26T11:46:12.741Z,22.72
2022-08-26T11:47:31.928Z,22.82
2022-08-26T11:48:39.139Z,23.50
2022-08-26T11:49:43.462Z,23.50
2022-08-26T11:51:10.122Z,23.48
2022-08-26T11:52:20.920Z,23.52
2022-08-26T11:53:27.953Z,23.14
2022-08-26T11:54:35.809Z,22.90
2022-08-26T11:55:40.465Z,22.90
2022-08-26T11:56:47.681Z,23.73
2022-08-26T11:57:54.685Z,24.33
2022-08-26T11:59:02.348Z,23.75
2022-08-26T12:00:12.522Z,23.75
2022-08-26T12:01:31.179Z,24.12
2022-08-26T12:02:35.759Z,25.18
2022-08-26T12:03:48.653Z,23.43
2022-08-26T12:04:54.934Z,23.43
2022-08-26T12:05:59.587Z,24.07
2022-08-26T12:07:09.729Z,23.82
2022-08-26T12:08:13.547Z,23.82
2022-08-26T12:09:29.532Z,24.02
2022-08-26T12:10:34.891Z,24.03
2022-08-26T12:11:40.877Z,24.19
2022-08-26T12:12:49.578Z,24.41
2022-08-26T12:14:02.457Z,24.67
2022-08-26T12:15:15.121Z,24.67
2022-08-26T12:16:22.758Z,23.16
2022-08-26T12:17:29.712Z,22.06
2022-08-26T12:18:37.475Z,22.94
2022-08-26T12:19:41.529Z,22.94
2022-08-26T12:20:45.876Z,22.94
2022-08-26T12:21:53.731Z,22.94
2022-08-26T12:22:59.487Z,23.97
2022-08-26T12:24:04.451Z,23.69
2022-08-26T12:25:11.512Z,25.06
2022-08-26T12:26:31.720Z,23.97
2022-08-26T12:27:38.859Z,23.97
2022-08-26T12:28:48.160Z,24.02
2022-08-26T12:30:12.228Z,23.74
2022-08-26T12:31:31.393Z,25.65
2022-08-26T12:32:39.195Z,24.57
2022-08-26T12:33:48.400Z,24.57
2022-08-26T12:34:52.751Z,24.58
2022-08-26T12:35:57.496Z,24.79
2022-08-26T12:37:04.138Z,24.79
2022-08-26T12:38:13.106Z,25.27
2022-08-26T12:39:34.844Z,24.12
2022-08-26T12:40:45.104Z,24.12
2022-08-26T12:43:09.133Z,24.65
2022-08-26T12:43:35.187Z,24.65
2022-08-26T12:44:38.577Z,25.45
2022-08-26T12:45:45.962Z,25.04
2022-08-26T12:46:50.335Z,25.04
2022-08-26T12:47:57.779Z,24.71
2022-08-26T12:49:03.777Z,24.43
2022-08-26T12:50:11.057Z,24.29
2022-08-26T12:51:24.222Z,25.61
2022-08-26T12:52:32.932Z,25.62
2022-08-26T12:53:40.032Z,25.56
2022-08-26T12:54:47.154Z,24.71
2022-08-26T12:55:57.510Z,25.23
2022-08-26T12:57:13.922Z,25.54
2022-08-26T12:58:26.824Z,24.83
2022-08-26T12:59:30.945Z,24.83
2022-08-26T13:00:37.846Z,25.11
2022-08-26T13:01:48.426Z,25.41
2022-08-26T13:02:53.195Z,25.41
2022-08-26T13:03:59.033Z,25.38
2022-08-26T13:05:04.480Z,25.38
2022-08-26T13:06:17.650Z,24.40
2022-08-26T13:07:25.030Z,24.40
2022-08-26T13:08:29.145Z,25.36
2022-08-26T13:09:33.374Z,24.38
2022-08-26T13:10:40.553Z,24.34
2022-08-26T13:11:50.256Z,24.06
2022-08-26T13:12:55.964Z,24.06
2022-08-26T13:14:24.352Z,24.17
2022-08-26T13:15:26.872Z,23.98
2022-08-26T13:16:33.053Z,24.47
2022-08-26T13:17:48.434Z,24.47
2022-08-26T13:18:53.126Z,24.38
2022-08-26T13:20:54.743Z,23.89
2022-08-26T13:21:21.014Z,24.15
2022-08-26T13:22:27.334Z,24.15
2022-08-26T13:23:31.445Z,24.63
2022-08-26T13:24:38.266Z,24.61
2022-08-26T13:25:42.343Z,24.61
2022-08-26T13:26:48.806Z,24.52
2022-08-26T13:27:53.015Z,24.83
2022-08-26T13:29:02.222Z,24.58
2022-08-26T13:30:20.498Z,24.66
2022-08-26T13:31:19.215Z,24.64
2022-08-26T13:32:27.177Z,24.33
2022-08-26T13:33:30.926Z,24.32
2022-08-26T13:34:37.158Z,24.45
2022-08-26T13:35:41.296Z,24.45
2022-08-26T13:36:46.121Z,23.59
2022-08-26T13:37:54.168Z,23.98
2022-08-26T13:38:58.345Z,23.94
2022-08-26T13:40:04.343Z,23.94
2022-08-26T13:41:11.239Z,23.34
2022-08-26T13:42:25.293Z,23.65
2022-08-26T13:43:26.869Z,23.71
2022-08-26T13:44:31.735Z,23.71
2022-08-26T13:45:39.900Z,23.24
2022-08-26T13:46:53.402Z,23.80
2022-08-26T13:47:57.488Z,23.80
2022-08-26T13:49:01.841Z,23.80
2022-08-26T13:50:06.461Z,23.64
2022-08-26T13:51:10.577Z,23.60
2022-08-26T13:52:17.742Z,24.50
2022-08-26T13:53:25.843Z,24.50
2022-08-26T13:54:32.968Z,23.52
2022-08-26T13:55:37.209Z,23.52
2022-08-26T13:56:44.539Z,24.41
2022-08-26T13:57:47.097Z,24.63
2022-08-26T13:58:51.384Z,24.63
2022-08-26T13:59:57.708Z,24.13
2022-08-26T14:01:01.982Z,24.18
2022-08-26T14:02:08.969Z,23.45
2022-08-26T14:03:13.702Z,24.30
2022-08-26T14:04:27.014Z,24.30
2022-08-26T14:05:35.508Z,23.69
2022-08-26T14:06:41.778Z,22.92
2022-08-26T14:07:49.479Z,22.92
2022-08-26T14:08:53.318Z,22.84
2022-08-26T14:10:00.793Z,22.84
2022-08-26T14:11:06.388Z,22.93
2022-08-26T14:12:10.612Z,22.60
2022-08-26T14:13:15.552Z,22.38
2022-08-26T14:14:21.256Z,22.70
2022-08-26T14:15:27.027Z,22.70
2022-08-26T14:16:36.929Z,22.69
2022-08-26T14:17:40.702Z,23.11
2022-08-26T14:18:50.499Z,22.97
2022-08-26T14:19:52.981Z,22.59
2022-08-26T14:20:57.227Z,23.05
2022-08-26T14:22:01.872Z,23.24
2022-08-26T14:24:28.858Z,23.29
2022-08-26T14:25:28.042Z,23.20
2022-08-26T14:26:32.571Z,23.20
2022-08-26T14:27:39.406Z,23.04
2022-08-26T14:29:00.161Z,23.00
2022-08-26T14:29:56.655Z,23.33
2022-08-26T14:31:06.789Z,23.06
2022-08-26T14:32:21.378Z,23.39
2022-08-26T14:33:24.343Z,23.39
2022-08-26T14:34:28.726Z,23.99
2022-08-26T14:35:37.119Z,23.30
2022-08-26T14:36:43.057Z,23.30